Denver, Colorado
Traffic Map
Current Weather Conditions
Denver, Colorado
Overcast
Overcast
14°
Feels Like: 14°
Wind Chill: 14° Ceiling: 1700
Heat Index: 14° Visibility: 10mi
Dew Point: 13° Wind: 15mph
Humidity: 90% Direction: 90° (E)
Pressure: 30.13in Gusts: 0mph
Raw Report DataKDEN 191014Z 09013KT 10SM SCT007 BKN017 OVC022 14/13 A3013 RMK AO2 DZE0959 P0000 T01440128 $
Traffic Incident Summary
Active as of:
Severity:
Category:
InformationThere was an issue retrieving the traffic information for this location. Please try a different location or try again shortly.
Advertisements